createdAt,value
2022-08-14T00:02:03.032Z,16.12
2022-08-14T00:04:52.877Z,16.14
2022-08-14T00:07:35.645Z,15.98
2022-08-14T00:10:51.569Z,15.92
2022-08-14T00:13:37.038Z,15.92
2022-08-14T00:16:44.275Z,15.89
2022-08-14T00:19:31.039Z,15.89
2022-08-14T00:22:44.433Z,15.80
2022-08-14T00:25:19.912Z,15.74
2022-08-14T00:28:15.417Z,15.73
2022-08-14T00:30:58.148Z,15.66
2022-08-14T00:33:50.802Z,15.57
2022-08-14T00:36:49.091Z,15.54
2022-08-14T00:39:30.564Z,15.55
2022-08-14T00:42:21.191Z,15.52
2022-08-14T00:45:16.788Z,15.49
2022-08-14T00:47:56.879Z,15.48
2022-08-14T00:50:39.922Z,15.41
2022-08-14T00:53:20.045Z,15.38
2022-08-14T00:56:06.967Z,15.41
2022-08-14T00:58:48.318Z,15.44
2022-08-14T01:01:29.387Z,15.44
2022-08-14T01:04:38.419Z,15.46
2022-08-14T01:07:24.395Z,15.41
2022-08-14T01:10:10.752Z,15.41
2022-08-14T01:13:03.023Z,15.40
2022-08-14T01:15:57.690Z,15.37
2022-08-14T01:19:02.095Z,15.33
2022-08-14T01:21:47.148Z,15.31
2022-08-14T01:24:36.473Z,15.30
2022-08-14T01:27:20.222Z,15.26
2022-08-14T01:30:04.679Z,15.22
2022-08-14T01:32:43.454Z,15.20
2022-08-14T01:36:04.056Z,15.16
2022-08-14T01:38:37.370Z,15.17
2022-08-14T01:41:18.871Z,15.19
2022-08-14T01:44:06.157Z,15.09
2022-08-14T01:47:22.127Z,15.06
2022-08-14T01:50:10.191Z,15.05
2022-08-14T01:52:59.834Z,15.03
2022-08-14T01:55:41.643Z,14.98
2022-08-14T01:58:28.965Z,15.03
2022-08-14T02:01:06.112Z,14.98
2022-08-14T02:03:53.354Z,15.00
2022-08-14T02:06:38.286Z,14.95
2022-08-14T02:09:19.362Z,14.94
2022-08-14T02:12:01.045Z,14.92
2022-08-14T02:14:40.030Z,14.89
2022-08-14T02:17:43.649Z,14.85
2022-08-14T02:20:24.098Z,14.83
2022-08-14T02:23:05.638Z,14.82
2022-08-14T02:25:54.518Z,14.82
2022-08-14T02:28:57.975Z,14.80
2022-08-14T02:31:44.166Z,14.89
2022-08-14T02:34:29.312Z,14.79
2022-08-14T02:37:06.761Z,14.69
2022-08-14T02:39:50.833Z,14.68
2022-08-14T02:42:39.473Z,14.67
2022-08-14T02:45:23.886Z,14.56
2022-08-14T02:47:58.864Z,14.56
2022-08-14T02:50:44.750Z,14.52
2022-08-14T02:53:35.327Z,14.49
2022-08-14T02:56:30.320Z,14.51
2022-08-14T02:59:23.457Z,14.37
2022-08-14T03:02:49.553Z,14.33
2022-08-14T03:05:21.039Z,14.32
2022-08-14T03:07:59.319Z,14.28
2022-08-14T03:10:49.388Z,14.30
2022-08-14T03:13:35.816Z,14.26
2022-08-14T03:16:26.820Z,14.24
2022-08-14T03:19:16.038Z,14.20
2022-08-14T03:22:04.975Z,14.19
2022-08-14T03:24:49.966Z,14.21
2022-08-14T03:27:35.471Z,14.25
2022-08-14T03:30:39.476Z,14.23
2022-08-14T03:33:37.997Z,14.24
2022-08-14T03:37:37.445Z,14.19
2022-08-14T03:39:40.888Z,14.11
2022-08-14T03:42:36.531Z,14.11
2022-08-14T03:45:34.448Z,14.09
2022-08-14T03:48:31.318Z,14.05
2022-08-14T03:51:20.590Z,14.05
2022-08-14T03:54:01.523Z,14.09
2022-08-14T03:56:44.793Z,14.08
2022-08-14T03:59:28.512Z,14.09
2022-08-14T04:02:31.816Z,14.09
2022-08-14T04:05:16.472Z,14.14
2022-08-14T04:08:22.433Z,14.19
2022-08-14T04:11:10.353Z,14.18
2022-08-14T04:13:52.576Z,14.24
2022-08-14T04:16:31.731Z,14.26
2022-08-14T04:19:32.729Z,14.29
2022-08-14T04:22:10.012Z,14.35
2022-08-14T04:24:49.623Z,14.41
2022-08-14T04:27:32.025Z,14.45
2022-08-14T04:30:42.444Z,14.49
2022-08-14T04:33:24.904Z,14.58
2022-08-14T04:36:09.310Z,14.62
2022-08-14T04:39:20.837Z,14.71
2022-08-14T04:42:18.049Z,14.82
2022-08-14T04:45:00.830Z,14.92
2022-08-14T04:48:01.936Z,15.03
2022-08-14T04:50:44.305Z,15.18
2022-08-14T04:53:36.179Z,15.33
2022-08-14T04:56:30.695Z,15.51
2022-08-14T04:59:17.689Z,15.72
2022-08-14T05:02:04.706Z,15.93
2022-08-14T05:04:45.400Z,16.14
2022-08-14T05:07:54.086Z,16.40
2022-08-14T05:10:32.580Z,16.70
2022-08-14T05:13:24.567Z,16.96
2022-08-14T05:16:17.933Z,17.28
2022-08-14T05:19:18.400Z,17.58
2022-08-14T05:22:17.099Z,17.83
2022-08-14T05:24:57.842Z,18.10
2022-08-14T05:27:35.590Z,18.38
2022-08-14T05:30:15.054Z,18.63
2022-08-14T05:32:59.963Z,19.04
2022-08-14T05:35:42.920Z,19.41
2022-08-14T05:38:22.446Z,19.72
2022-08-14T05:41:19.538Z,19.99
2022-08-14T05:43:57.168Z,20.33
2022-08-14T05:46:44.236Z,20.72
2022-08-14T05:49:32.778Z,21.12
2022-08-14T05:52:18.353Z,21.46
2022-08-14T05:55:01.790Z,21.89
2022-08-14T05:57:59.589Z,22.24
2022-08-14T06:00:46.018Z,22.45
2022-08-14T06:03:22.573Z,22.67
2022-08-14T06:06:11.859Z,22.88
2022-08-14T06:08:48.082Z,23.05
2022-08-14T06:11:31.021Z,23.28
2022-08-14T06:14:21.525Z,23.57
2022-08-14T06:17:02.582Z,23.90
2022-08-14T06:19:44.043Z,24.07
2022-08-14T06:22:22.156Z,24.10
2022-08-14T06:25:07.586Z,24.08
2022-08-14T06:27:51.530Z,24.18
2022-08-14T06:30:46.271Z,24.25
2022-08-14T06:33:45.719Z,24.51
2022-08-14T06:36:32.514Z,24.58
2022-08-14T06:39:36.516Z,24.85
2022-08-14T06:42:32.658Z,25.06
2022-08-14T06:45:09.132Z,25.22
2022-08-14T06:47:45.933Z,25.36
2022-08-14T06:50:30.803Z,25.33
2022-08-14T06:53:14.572Z,25.61
2022-08-14T06:55:53.178Z,25.80
2022-08-14T06:58:44.808Z,25.97
2022-08-14T07:01:42.230Z,25.88
2022-08-14T07:04:36.408Z,26.04
2022-08-14T07:07:17.060Z,26.41
2022-08-14T07:09:58.727Z,26.42
2022-08-14T07:13:01.655Z,26.48
2022-08-14T07:15:49.207Z,26.76
2022-08-14T07:18:40.801Z,26.95
2022-08-14T07:21:16.598Z,26.78
2022-08-14T07:24:09.702Z,27.16
2022-08-14T07:27:05.835Z,27.25
2022-08-14T07:29:50.257Z,27.48
2022-08-14T07:32:34.032Z,27.73
2022-08-14T07:35:16.054Z,28.00
2022-08-14T07:37:59.845Z,28.01
2022-08-14T07:40:38.103Z,27.93
2022-08-14T07:43:28.312Z,27.76
2022-08-14T07:46:09.163Z,27.73
2022-08-14T07:48:53.797Z,27.81
2022-08-14T07:51:37.153Z,28.06
2022-08-14T07:54:16.608Z,28.25
2022-08-14T07:57:11.893Z,28.33
2022-08-14T07:59:56.422Z,28.33
2022-08-14T08:02:36.375Z,28.35
2022-08-14T08:05:24.044Z,28.29
2022-08-14T08:08:04.512Z,28.38
2022-08-14T08:11:02.409Z,28.63
2022-08-14T08:13:54.568Z,28.61
2022-08-14T08:16:39.510Z,28.56
2022-08-14T08:19:19.354Z,28.98
2022-08-14T08:21:58.121Z,28.39
2022-08-14T08:24:39.036Z,28.47
2022-08-14T08:27:25.896Z,28.98
2022-08-14T08:30:11.440Z,28.92
2022-08-14T08:33:00.533Z,28.72
2022-08-14T08:35:46.957Z,28.51
2022-08-14T08:39:18.342Z,28.54
2022-08-14T08:41:41.709Z,28.69
2022-08-14T08:44:32.045Z,28.67
2022-08-14T08:47:11.037Z,28.69
2022-08-14T08:49:59.183Z,29.07
2022-08-14T08:52:31.533Z,29.25
2022-08-14T08:55:18.037Z,29.18
2022-08-14T08:58:12.371Z,29.39
2022-08-14T09:00:54.164Z,29.28
2022-08-14T09:03:29.139Z,28.90
2022-08-14T09:06:53.855Z,29.11
2022-08-14T09:09:54.188Z,29.00
2022-08-14T09:12:46.730Z,29.38
2022-08-14T09:15:25.384Z,29.52
2022-08-14T09:18:15.477Z,29.62
2022-08-14T09:20:58.882Z,29.67
2022-08-14T09:24:26.158Z,29.66
2022-08-14T09:26:39.689Z,29.54
2022-08-14T09:29:28.768Z,29.68
2022-08-14T09:32:03.989Z,29.58
2022-08-14T09:35:14.965Z,29.84
2022-08-14T09:38:19.445Z,29.93
2022-08-14T09:42:21.586Z,30.31
2022-08-14T09:45:08.796Z,30.50
2022-08-14T09:47:56.729Z,30.68
2022-08-14T09:50:48.113Z,30.93
2022-08-14T09:54:19.355Z,30.51
2022-08-14T09:56:57.064Z,30.11
2022-08-14T09:59:42.344Z,29.21
2022-08-14T10:02:31.180Z,29.42
2022-08-14T10:05:13.324Z,29.94
2022-08-14T10:07:59.019Z,30.33
2022-08-14T10:10:39.090Z,30.76
2022-08-14T10:13:28.159Z,31.03
2022-08-14T10:16:22.001Z,31.14
2022-08-14T10:19:16.019Z,31.43
2022-08-14T10:23:13.550Z,31.68
2022-08-14T10:25:20.173Z,31.96
2022-08-14T10:28:03.957Z,32.05
2022-08-14T10:30:37.867Z,31.65
2022-08-14T10:33:26.532Z,31.33
2022-08-14T10:36:05.389Z,31.53
2022-08-14T10:38:44.386Z,31.66
2022-08-14T10:41:46.529Z,31.84
2022-08-14T10:44:32.760Z,32.46
2022-08-14T10:47:40.959Z,32.58
2022-08-14T10:50:07.445Z,33.02
2022-08-14T10:52:46.785Z,33.02
2022-08-14T10:55:22.681Z,33.15
2022-08-14T10:57:58.325Z,33.03
2022-08-14T11:00:38.644Z,33.40
2022-08-14T11:03:55.299Z,33.41
2022-08-14T11:06:30.246Z,32.98
2022-08-14T11:09:16.891Z,33.04
2022-08-14T11:12:33.943Z,32.83
2022-08-14T11:15:04.188Z,32.51
2022-08-14T11:17:46.494Z,32.51
2022-08-14T11:20:36.222Z,32.84
2022-08-14T11:23:10.935Z,32.37
2022-08-14T11:25:53.281Z,32.10
2022-08-14T11:28:46.167Z,32.43
2022-08-14T11:31:35.608Z,32.40
2022-08-14T11:34:32.302Z,32.92
2022-08-14T11:37:31.584Z,32.89
2022-08-14T11:40:29.371Z,33.26
2022-08-14T11:43:05.312Z,32.43
2022-08-14T11:45:43.726Z,32.35
2022-08-14T11:49:02.018Z,32.05
2022-08-14T11:51:30.665Z,31.44
2022-08-14T11:54:13.991Z,31.64
2022-08-14T11:56:57.239Z,31.97
2022-08-14T11:59:44.243Z,32.28
2022-08-14T12:02:38.891Z,32.54
2022-08-14T12:05:28.110Z,33.00
2022-08-14T12:08:02.912Z,33.16
2022-08-14T12:10:46.165Z,32.86
2022-08-14T12:13:28.706Z,32.94
2022-08-14T12:16:11.225Z,32.48
2022-08-14T12:19:01.357Z,32.11
2022-08-14T12:21:36.913Z,31.58
2022-08-14T12:24:31.763Z,31.72
2022-08-14T12:27:24.965Z,32.14
2022-08-14T12:30:03.325Z,32.91
2022-08-14T12:32:47.710Z,33.55
2022-08-14T12:35:17.759Z,33.12
2022-08-14T12:38:01.600Z,33.50
2022-08-14T12:40:47.666Z,33.50
2022-08-14T12:43:33.580Z,33.50
2022-08-14T12:46:27.280Z,33.86
2022-08-14T12:49:16.138Z,34.00
2022-08-14T12:52:03.086Z,33.65
2022-08-14T12:54:57.584Z,33.16
2022-08-14T12:57:53.133Z,33.36
2022-08-14T13:00:32.776Z,33.42
2022-08-14T13:03:11.228Z,33.86
2022-08-14T13:05:48.601Z,34.00
2022-08-14T13:08:33.986Z,34.17
2022-08-14T13:11:16.479Z,34.58
2022-08-14T13:14:03.091Z,34.75
2022-08-14T13:16:50.189Z,34.70
2022-08-14T13:19:26.807Z,34.65
2022-08-14T13:22:10.065Z,34.61
2022-08-14T13:24:57.192Z,34.81
2022-08-14T13:27:39.142Z,35.32
2022-08-14T13:30:23.728Z,35.55
2022-08-14T13:33:02.262Z,35.33
2022-08-14T13:35:43.170Z,34.25
2022-08-14T13:38:26.430Z,35.10
2022-08-14T13:41:06.198Z,35.27
2022-08-14T13:43:49.247Z,35.16
2022-08-14T13:46:45.933Z,35.55
2022-08-14T13:49:23.837Z,35.77
2022-08-14T13:52:48.793Z,35.69
2022-08-14T13:55:08.687Z,35.29
2022-08-14T13:58:03.016Z,35.15
2022-08-14T14:00:52.925Z,34.98
2022-08-14T14:03:35.895Z,34.92
2022-08-14T14:06:13.615Z,34.97
2022-08-14T14:08:55.056Z,35.13
2022-08-14T14:11:34.965Z,34.69
2022-08-14T14:14:44.832Z,34.46
2022-08-14T14:17:18.710Z,34.96
2022-08-14T14:20:00.639Z,34.87
2022-08-14T14:23:02.225Z,35.23
2022-08-14T14:25:45.835Z,35.46
2022-08-14T14:28:29.868Z,35.30
2022-08-14T14:31:06.218Z,34.90
2022-08-14T14:33:50.737Z,34.69
2022-08-14T14:36:32.752Z,34.64
2022-08-14T14:39:08.776Z,34.60
2022-08-14T14:41:46.341Z,34.85
2022-08-14T14:44:35.958Z,34.75
2022-08-14T14:47:22.779Z,34.39
2022-08-14T14:49:57.347Z,34.35
2022-08-14T14:52:37.113Z,34.42
2022-08-14T14:55:10.482Z,34.19
2022-08-14T14:57:52.202Z,33.61
2022-08-14T15:00:32.759Z,33.52
2022-08-14T15:03:16.237Z,34.07
2022-08-14T15:05:47.833Z,34.63
2022-08-14T15:08:26.628Z,34.51
2022-08-14T15:11:23.540Z,34.38
2022-08-14T15:14:56.121Z,33.89
2022-08-14T15:17:12.109Z,33.98
2022-08-14T15:19:56.248Z,34.12
2022-08-14T15:22:40.290Z,34.22
2022-08-14T15:25:43.903Z,34.38
2022-08-14T15:28:29.712Z,33.29
2022-08-14T15:31:20.113Z,33.11
2022-08-14T15:34:44.088Z,33.23
2022-08-14T15:37:13.075Z,32.78
2022-08-14T15:39:57.407Z,32.81
2022-08-14T15:42:38.082Z,32.90
2022-08-14T15:45:20.413Z,32.75
2022-08-14T15:48:00.572Z,32.42
2022-08-14T15:50:43.412Z,32.09
2022-08-14T15:53:31.368Z,31.81
2022-08-14T15:56:07.496Z,31.52
2022-08-14T15:58:47.307Z,31.31
2022-08-14T16:01:43.650Z,31.39
2022-08-14T16:04:27.408Z,31.21
2022-08-14T16:06:59.606Z,31.13
2022-08-14T16:10:01.351Z,30.86
2022-08-14T16:12:50.546Z,30.68
2022-08-14T16:15:25.524Z,30.50
2022-08-14T16:18:20.190Z,30.45
2022-08-14T16:21:02.154Z,30.40
2022-08-14T16:23:44.222Z,30.15
2022-08-14T16:26:29.854Z,30.05
2022-08-14T16:29:15.533Z,29.86
2022-08-14T16:31:49.947Z,30.14
2022-08-14T16:34:45.338Z,32.09
2022-08-14T16:37:33.898Z,34.12
2022-08-14T16:40:06.853Z,35.42
2022-08-14T16:43:04.146Z,36.67
2022-08-14T16:45:44.297Z,36.63
2022-08-14T16:48:55.141Z,37.06
2022-08-14T16:51:28.321Z,36.94
2022-08-14T16:54:33.702Z,36.86
2022-08-14T16:57:50.407Z,37.26
2022-08-14T17:00:43.813Z,37.37
2022-08-14T17:03:27.125Z,37.29
2022-08-14T17:06:02.206Z,36.51
2022-08-14T17:09:03.161Z,34.63
2022-08-14T17:12:01.382Z,33.11
2022-08-14T17:15:09.951Z,31.79
2022-08-14T17:17:59.761Z,30.92
2022-08-14T17:21:00.266Z,30.31
2022-08-14T17:23:35.863Z,29.70
2022-08-14T17:26:32.270Z,29.19
2022-08-14T17:29:24.312Z,28.44
2022-08-14T17:32:28.058Z,28.05
2022-08-14T17:35:16.862Z,27.73
2022-08-14T17:37:55.981Z,27.43
2022-08-14T17:40:33.239Z,27.25
2022-08-14T17:43:11.792Z,27.03
2022-08-14T17:45:55.030Z,26.70
2022-08-14T17:49:14.693Z,26.47
2022-08-14T17:51:58.853Z,26.33
2022-08-14T17:54:38.392Z,26.15
2022-08-14T17:57:13.584Z,25.98
2022-08-14T17:59:51.204Z,25.81
2022-08-14T18:02:31.457Z,25.67
2022-08-14T18:05:12.978Z,25.52
2022-08-14T18:08:31.981Z,25.40
2022-08-14T18:10:58.022Z,25.11
2022-08-14T18:13:51.572Z,24.92
2022-08-14T18:16:35.488Z,24.69
2022-08-14T18:19:17.086Z,24.48
2022-08-14T18:21:58.082Z,24.34
2022-08-14T18:24:41.455Z,24.16
2022-08-14T18:27:26.101Z,24.02
2022-08-14T18:30:33.390Z,23.83
2022-08-14T18:33:28.322Z,23.52
2022-08-14T18:36:48.388Z,23.47
2022-08-14T18:39:28.294Z,23.47
2022-08-14T18:42:23.831Z,23.48
2022-08-14T18:45:12.995Z,23.47
2022-08-14T18:48:16.550Z,23.54
2022-08-14T18:51:10.119Z,23.65
2022-08-14T18:54:02.646Z,23.46
2022-08-14T18:56:57.718Z,23.45
2022-08-14T18:59:52.766Z,23.31
2022-08-14T19:02:48.406Z,23.14
2022-08-14T19:05:41.091Z,23.02
2022-08-14T19:08:31.480Z,22.85
2022-08-14T19:11:32.101Z,22.76
2022-08-14T19:14:09.613Z,22.59
2022-08-14T19:16:54.930Z,22.46
2022-08-14T19:19:43.494Z,22.31
2022-08-14T19:22:29.812Z,22.27
2022-08-14T19:25:05.789Z,22.16
2022-08-14T19:27:46.999Z,22.03
2022-08-14T19:30:23.395Z,21.99
2022-08-14T19:33:08.732Z,21.91
2022-08-14T19:35:56.050Z,21.84
2022-08-14T19:38:54.166Z,21.75
2022-08-14T19:41:41.319Z,21.65
2022-08-14T19:44:32.016Z,21.61
2022-08-14T19:47:12.450Z,21.57
2022-08-14T19:50:07.377Z,21.49
2022-08-14T19:53:01.254Z,21.49
2022-08-14T19:55:45.678Z,21.35
2022-08-14T19:58:30.007Z,21.28
2022-08-14T20:01:12.171Z,21.19
2022-08-14T20:04:00.565Z,21.11
2022-08-14T20:06:46.750Z,21.00
2022-08-14T20:11:12.351Z,20.87
2022-08-14T20:12:28.678Z,20.76
2022-08-14T20:15:21.084Z,20.66
2022-08-14T20:17:57.410Z,20.55
2022-08-14T20:20:42.172Z,20.43
2022-08-14T20:23:23.008Z,20.51
2022-08-14T20:26:10.369Z,20.56
2022-08-14T20:28:51.754Z,20.51
2022-08-14T20:31:37.632Z,20.47
2022-08-14T20:34:24.990Z,20.43
2022-08-14T20:37:25.415Z,20.40
2022-08-14T20:40:23.369Z,20.35
2022-08-14T20:43:20.448Z,20.23
2022-08-14T20:46:03.323Z,20.22
2022-08-14T20:48:53.073Z,20.15
2022-08-14T20:51:37.034Z,20.11
2022-08-14T20:54:16.082Z,20.04
2022-08-14T20:56:56.981Z,19.96
2022-08-14T20:59:40.378Z,19.94
2022-08-14T21:02:50.435Z,19.88
2022-08-14T21:05:33.353Z,19.86
2022-08-14T21:08:25.754Z,19.82
2022-08-14T21:11:04.278Z,19.80
2022-08-14T21:14:19.435Z,19.73
2022-08-14T21:16:58.622Z,19.64
2022-08-14T21:19:43.061Z,19.58
2022-08-14T21:22:28.563Z,19.54
2022-08-14T21:25:12.582Z,19.42
2022-08-14T21:27:56.595Z,19.34
2022-08-14T21:30:46.969Z,19.26
2022-08-14T21:33:42.947Z,19.25
2022-08-14T21:36:31.053Z,19.17
2022-08-14T21:39:21.335Z,19.12
2022-08-14T21:42:05.787Z,19.04
2022-08-14T21:44:44.478Z,19.02
2022-08-14T21:47:24.475Z,18.93
2022-08-14T21:50:56.516Z,18.87
2022-08-14T21:53:20.510Z,18.79
2022-08-14T21:55:58.629Z,18.71
2022-08-14T21:58:53.086Z,18.68
2022-08-14T22:01:29.782Z,18.62
2022-08-14T22:04:33.426Z,18.67
2022-08-14T22:07:18.089Z,18.56
2022-08-14T22:09:55.343Z,18.49
2022-08-14T22:12:47.267Z,18.52
2022-08-14T22:15:39.821Z,18.41
2022-08-14T22:18:25.536Z,18.39
2022-08-14T22:21:06.041Z,18.27
2022-08-14T22:23:43.501Z,18.29
2022-08-14T22:26:20.007Z,18.26
2022-08-14T22:29:19.028Z,18.18
2022-08-14T22:32:07.187Z,18.17
2022-08-14T22:34:48.127Z,18.11
2022-08-14T22:37:25.347Z,18.06
2022-08-14T22:40:43.822Z,18.06
2022-08-14T22:43:27.667Z,17.94
2022-08-14T22:46:22.564Z,17.97
2022-08-14T22:49:15.374Z,17.97
2022-08-14T22:52:31.914Z,18.04
2022-08-14T22:55:16.055Z,18.04
2022-08-14T22:58:00.283Z,17.99
2022-08-14T23:00:43.684Z,17.95
2022-08-14T23:03:20.956Z,18.03
2022-08-14T23:05:59.286Z,17.95
2022-08-14T23:08:58.130Z,17.92
2022-08-14T23:11:45.581Z,17.86
2022-08-14T23:14:26.766Z,17.81
2022-08-14T23:17:06.009Z,17.73
2022-08-14T23:19:46.793Z,17.68
2022-08-14T23:22:26.904Z,17.58
2022-08-14T23:25:02.980Z,17.52
2022-08-14T23:28:03.639Z,17.56
2022-08-14T23:30:49.096Z,17.56
2022-08-14T23:33:33.114Z,17.50
2022-08-14T23:36:32.847Z,17.46
2022-08-14T23:39:10.255Z,17.39
2022-08-14T23:41:53.156Z,17.33
2022-08-14T23:44:35.273Z,17.34
2022-08-14T23:47:26.581Z,17.31
2022-08-14T23:50:33.872Z,17.29
2022-08-14T23:53:52.044Z,17.23
2022-08-14T23:56:32.272Z,17.22
2022-08-14T23:59:10.326Z,17.14
